• Join FlightAware (Why Join?)
  • Login
  • US Flag 
10:13PM EST


 

Airport Tracker/Info


-or-


 

Live Flight TrackerFlight Track Log ✈ SWA726 ✈ 29-Apr-2013 ✈ KAUS - KELP

Flight Track Log - Related Links

Times and Time Zones

All times are in EDT time to prevent confusion due to time zone crossing. See the SWA726 flight status page for this flight to view local times or setup timezone preferences in your user account.

Time Position Orientation Groundspeed Altitude Reporting Facility
EDT Latitude Longitude Course Direction KTS MPH feet Rate Location/Type
01:31PM 30.0939 -97.7367 278° West 233 268 6,300  Level Houston Center
01:32PM 30.1308 -97.8125 299° West 273 314 9,100 3,060 Climbing Houston Center
01:33PM 30.1850 -97.8964 307° West 273 314 12,700 2,760 Climbing Houston Center
01:34PM 30.2206 -97.9819 296° West 304 350 14,900 1,980 Climbing Houston Center
01:35PM 30.2544 -98.0914 290° West 333 383 16,800 1,800 Climbing Houston Center
01:36PM 30.4167 -97.9597 270° West  Level FlightAware Approximate
01:36PM 30.2794 -98.2114 284° West 379 436 18,700  Level Houston Center
01:37PM 30.4259 -98.0778 278° West  Level FlightAware Approximate
01:37PM 30.3064 -98.3383 284° West 387 445 21,500  Level Houston Center
01:39PM 30.3314 -98.4517 284° West 390 449 23,300 1,500 Climbing Houston Center
01:40PM 30.3581 -98.5836 283° West 412 474 24,600 1,560 Climbing Houston Center
01:41PM 30.3883 -98.7208 284° West 433 498 26,600 2,100 Climbing Houston Center
01:42PM 30.4222 -98.8778 284° West 429 494 29,000 1,980 Climbing Houston Center
01:43PM 30.4494 -99.0122 283° West 426 490 30,800 1,560 Climbing Houston Center
01:44PM 30.4744 -99.1314 284° West 419 482 32,300 1,200 Climbing Houston Center
01:45PM 30.5014 -99.2608 284° West 417 480 33,400 1,560 Climbing Houston Center
01:46PM 30.5336 -99.4147 284° West 411 473 35,600 1,260 Climbing Houston Center
01:47PM 30.5581 -99.5378 283° West 397 457 36,000 180 Climbing Houston Center
01:48PM 30.5833 -99.6622 283° West 399 459 36,000  Level Houston Center
01:49PM 30.6081 -99.7850 283° West 393 452 36,000  Level Houston Center
01:50PM 30.6319 -99.9094 283° West 400 460 36,000  Level Houston Center
01:51PM 30.6622 -100.0586 283° West 401 461 36,000 -60 Level Houston Center
01:52PM 30.6864 -100.1808 283° West 395 455 35,900  Descending Houston Center
01:53PM 30.7108 -100.3061 283° West 401 461 36,000  Climbing Houston Center
01:54PM 30.7356 -100.4303 283° West 397 457 36,000  Level Houston Center
01:55PM 30.7600 -100.5544 283° West 398 458 36,000  Level Houston Center
01:56PM 30.7883 -100.7047 282° West 396 456 36,000  Level Houston Center
01:57PM 30.8128 -100.8306 283° West 399 459 36,000  Level Houston Center
01:58PM 30.8369 -100.9564 283° West 400 460 36,000  Level Houston Center
01:59PM 30.8600 -101.0850 282° West 408 470 36,000  Level Houston Center
02:00PM 30.8872 -101.2106 284° West 403 464 36,000  Level Houston Center
02:01PM 30.9108 -101.3400 282° West 407 468 36,000  Level Houston Center
02:02PM 30.9308 -101.4586 281° West 409 471 36,000  Level Albuquerque Center
02:03PM 30.9556 -101.5883 283° West 409 471 36,000  Level Albuquerque Center
02:04PM 30.9786 -101.7183 282° West 410 472 36,000  Level Albuquerque Center
02:05PM 31.0031 -101.8467 283° West 408 470 36,000  Level Albuquerque Center
02:06PM 31.0275 -101.9800 282° West 423 487 36,000  Level Albuquerque Center
02:07PM 31.0569 -102.1361 282° West 414 476 36,000  Level Albuquerque Center
02:08PM 31.0794 -102.2661 281° West 409 471 36,000  Level Albuquerque Center
02:09PM 31.1031 -102.3950 282° West 407 468 36,000  Level Albuquerque Center
02:10PM 31.1258 -102.5242 282° West 407 468 36,000  Level Albuquerque Center
02:11PM 31.1489 -102.6572 281° West 400 460 36,000  Level Albuquerque Center
02:12PM 31.1722 -102.7878 282° West 407 468 36,000  Level Albuquerque Center
02:13PM 31.1944 -102.9164 281° West 406 467 36,000  Level Albuquerque Center
02:14PM 31.2169 -103.0467 281° West 408 470 36,000  Level Albuquerque Center
02:15PM 31.2431 -103.2031 281° West 408 470 36,000  Level Albuquerque Center
02:17PM 31.2650 -103.3342 281° West 411 473 36,000  Level Albuquerque Center
02:18PM 31.2878 -103.4636 282° West 408 470 36,000  Level Albuquerque Center
02:19PM 31.3097 -103.5950 281° West 409 471 36,000  Level Albuquerque Center
02:20PM 31.3311 -103.7267 281° West 411 473 36,000  Level Albuquerque Center
02:21PM 31.3550 -103.8672 281° West 413 475 36,000  Level Albuquerque Center
02:22PM 31.3769 -103.9983 281° West 412 474 36,000  Level Albuquerque Center
02:23PM 31.4000 -104.1289 282° West 412 474 36,000  Level Albuquerque Center
02:24PM 31.4211 -104.2594 281° West 410 472 36,000  Level Albuquerque Center
02:25PM 31.4467 -104.4144 281° West 407 468 36,000 -420 Level Albuquerque Center
02:26PM 31.4631 -104.5464 278° West 411 473 35,200 -1,080 Descending Albuquerque Center
02:27PM 31.4764 -104.6781 277° West 410 472 33,800 -2,280 Descending Albuquerque Center
02:28PM 31.4903 -104.8136 277° West 418 481 30,600 -2,880 Descending Albuquerque Center
02:29PM 31.5056 -104.9558 277° West 436 502 27,900 -2,760 Descending Albuquerque Center
02:30PM 31.5208 -105.1172 276° West 422 486 25,000 -2,580 Descending Albuquerque Center
02:31PM 31.5336 -105.2464 277° West 406 467 22,600 -2,280 Descending Albuquerque Center
02:32PM 31.5461 -105.3739 277° West 399 459 20,300 -2,340 Descending Albuquerque Center
02:33PM 31.5544 -105.4689 276° West 373 429 18,600 -2,160 Descending Albuquerque Center
02:33PM 31.5575 -105.4928 279° West 375 432 18,100 -2,220 Descending Albuquerque Center
02:34PM 31.5658 -105.5858 276° West 360 414 16,400 -2,160 Descending Albuquerque Center
02:34PM 31.5678 -105.6094 276° West 363 418 15,900 -2,100 Descending Albuquerque Center
02:35PM 31.5764 -105.6981 277° West 342 394 14,300 -2,100 Descending Albuquerque Center
02:35PM 31.5803 -105.7189 282° West 345 397 13,800 -2,100 Descending Albuquerque Center
02:36PM 31.5883 -105.7972 277° West 334 384 12,400 -2,460 Descending Albuquerque Center
02:36PM 31.6075 -105.8419 297° West 328 377 11,300 -1,920 Descending Albuquerque Center
02:37PM 31.6383 -105.9044 300° West 319 367 10,300 -1,260 Descending Albuquerque Center
02:37PM 31.6522 -105.9292 303° West 314 361 10,000 -1,020 Descending Albuquerque Center
02:38PM 31.6744 -105.9728 301° West 290 334 9,400 -1,200 Descending Albuquerque Center
02:38PM 31.6908 -106.0075 299° West 281 323 8,800 -1,200 Descending Albuquerque Center
02:39PM 31.7119 -106.0481 301° West 263 303 8,200 -780 Descending Albuquerque Center
02:39PM 31.7272 -106.0803 299° West 261 300 8,000 -240 Descending Albuquerque Center
02:40PM 31.7456 -106.1272 295° West 225 259 8,000 -420 Level Albuquerque Center
02:40PM 31.7522 -106.1481 291° West 230 265 7,600 -1,140 Descending Albuquerque Center
02:41PM 31.7689 -106.1961 292° West 222 255 6,900 -1,200 Descending Albuquerque Center
02:41PM 31.7747 -106.2139 291° West 219 252 6,400 -1,140 Descending Albuquerque Center
02:42PM 31.7850 -106.2497 289° West 185 213 5,900 -780 Descending Albuquerque Center
02:42PM 31.7928 -106.2669 298° West 179 206 5,600 -840 Descending Albuquerque Center
02:43PM 31.7975 -106.2942 282° West 135 155 5,100 -1,020 Descending Albuquerque Center
02:43PM 31.7983 -106.3211 272° West 142 163 4,600 -720 Descending Albuquerque Center
02:44PM 31.7994 -106.3411 274° West 138 159 4,400 -600 Descending Albuquerque Center
02:44PM 31.8019 -106.3678 276° West 138 159 4,000 -660 Descending Albuquerque Center
02:46PM 31.8000 -106.3667 270° West  Level FlightAware Approximate
02:53PM 31.8072 -106.3764 270° West  Level Estimated
02:54PM 31.8072 -106.3764 270° West  Level Estimated
02:55PM 31.8072 -106.3764 270° West  Level Estimated
02:56PM 31.8072 -106.3764 270° West  Level Estimated